sensor_id;sensor_type;location;lat;lon;timestamp;P1;durP1;ratioP1;P2;durP2;ratioP2
17133;SDS011;8682;52.120;5.252;2023-01-29T00:01:27;762.10;;;339.47;;
17133;SDS011;8682;52.120;5.252;2023-01-29T00:03:55;634.43;;;318.50;;
17133;SDS011;8682;52.120;5.252;2023-01-29T00:06:23;546.40;;;310.80;;
17133;SDS011;8682;52.120;5.252;2023-01-29T00:08:51;621.33;;;335.47;;
17133;SDS011;8682;52.120;5.252;2023-01-29T00:11:18;650.83;;;329.03;;
17133;SDS011;8682;52.120;5.252;2023-01-29T00:13:45;558.70;;;335.23;;
17133;SDS011;8682;52.120;5.252;2023-01-29T00:16:12;460.03;;;260.23;;
17133;SDS011;8682;52.120;5.252;2023-01-29T00:18:40;616.90;;;331.80;;
17133;SDS011;8682;52.120;5.252;2023-01-29T00:21:07;655.03;;;327.60;;
17133;SDS011;8682;52.120;5.252;2023-01-29T00:23:36;602.70;;;334.20;;
17133;SDS011;8682;52.120;5.252;2023-01-29T00:26:04;949.83;;;525.63;;
17133;SDS011;8682;52.120;5.252;2023-01-29T00:28:31;526.73;;;286.13;;
17133;SDS011;8682;52.120;5.252;2023-01-29T00:30:58;708.87;;;363.87;;
17133;SDS011;8682;52.120;5.252;2023-01-29T00:33:27;1068.80;;;543.80;;
17133;SDS011;8682;52.120;5.252;2023-01-29T00:35:54;704.63;;;317.73;;
17133;SDS011;8682;52.120;5.252;2023-01-29T00:38:22;601.80;;;318.63;;
17133;SDS011;8682;52.120;5.252;2023-01-29T00:40:50;649.80;;;326.97;;
17133;SDS011;8682;52.120;5.252;2023-01-29T00:43:31;330.60;;;210.63;;
17133;SDS011;8682;52.120;5.252;2023-01-29T00:46:16;274.50;;;185.77;;
17133;SDS011;8682;52.120;5.252;2023-01-29T00:48:43;418.27;;;248.17;;
17133;SDS011;8682;52.120;5.252;2023-01-29T00:51:10;427.17;;;255.17;;
17133;SDS011;8682;52.120;5.252;2023-01-29T00:53:37;498.60;;;259.83;;
17133;SDS011;8682;52.120;5.252;2023-01-29T00:56:06;623.33;;;306.13;;
17133;SDS011;8682;52.120;5.252;2023-01-29T00:58:33;656.63;;;327.17;;
17133;SDS011;8682;52.120;5.252;2023-01-29T01:01:00;610.77;;;324.03;;
17133;SDS011;8682;52.120;5.252;2023-01-29T01:03:28;584.33;;;297.70;;
17133;SDS011;8682;52.120;5.252;2023-01-29T01:06:03;479.50;;;274.60;;
17133;SDS011;8682;52.120;5.252;2023-01-29T01:08:30;482.00;;;272.33;;
17133;SDS011;8682;52.120;5.252;2023-01-29T01:11:16;265.47;;;198.00;;
17133;SDS011;8682;52.120;5.252;2023-01-29T01:13:43;365.67;;;243.30;;
17133;SDS011;8682;52.120;5.252;2023-01-29T01:16:11;425.03;;;262.17;;
17133;SDS011;8682;52.120;5.252;2023-01-29T01:18:38;491.70;;;278.07;;
17133;SDS011;8682;52.120;5.252;2023-01-29T01:21:06;380.83;;;227.17;;
17133;SDS011;8682;52.120;5.252;2023-01-29T01:23:33;417.70;;;262.93;;
17133;SDS011;8682;52.120;5.252;2023-01-29T01:26:00;354.83;;;209.67;;
17133;SDS011;8682;52.120;5.252;2023-01-29T01:28:29;424.13;;;274.13;;
17133;SDS011;8682;52.120;5.252;2023-01-29T01:30:56;362.90;;;217.40;;
17133;SDS011;8682;52.120;5.252;2023-01-29T01:33:23;379.53;;;222.87;;
17133;SDS011;8682;52.120;5.252;2023-01-29T01:35:50;308.00;;;172.83;;
17133;SDS011;8682;52.120;5.252;2023-01-29T01:38:17;349.27;;;220.60;;
17133;SDS011;8682;52.120;5.252;2023-01-29T01:40:44;295.40;;;202.00;;
17133;SDS011;8682;52.120;5.252;2023-01-29T01:43:12;269.83;;;197.67;;
17133;SDS011;8682;52.120;5.252;2023-01-29T01:45:40;310.33;;;213.73;;
17133;SDS011;8682;52.120;5.252;2023-01-29T01:48:11;195.70;;;148.30;;
17133;SDS011;8682;52.120;5.252;2023-01-29T01:50:39;246.73;;;172.67;;
17133;SDS011;8682;52.120;5.252;2023-01-29T01:53:08;250.73;;;162.50;;
17133;SDS011;8682;52.120;5.252;2023-01-29T01:55:36;277.70;;;192.47;;
17133;SDS011;8682;52.120;5.252;2023-01-29T01:58:05;269.87;;;190.33;;
17133;SDS011;8682;52.120;5.252;2023-01-29T02:00:33;276.60;;;176.80;;
17133;SDS011;8682;52.120;5.252;2023-01-29T02:03:02;245.03;;;148.10;;
17133;SDS011;8682;52.120;5.252;2023-01-29T02:05:47;130.87;;;116.33;;
17133;SDS011;8682;52.120;5.252;2023-01-29T02:08:34;150.83;;;108.97;;
17133;SDS011;8682;52.120;5.252;2023-01-29T02:11:21;139.73;;;97.90;;
17133;SDS011;8682;52.120;5.252;2023-01-29T02:13:48;260.47;;;167.60;;
17133;SDS011;8682;52.120;5.252;2023-01-29T02:16:18;341.67;;;192.53;;
17133;SDS011;8682;52.120;5.252;2023-01-29T02:18:46;388.67;;;240.33;;
17133;SDS011;8682;52.120;5.252;2023-01-29T02:21:19;340.03;;;229.70;;
17133;SDS011;8682;52.120;5.252;2023-01-29T02:23:59;249.07;;;163.83;;
17133;SDS011;8682;52.120;5.252;2023-01-29T02:26:35;362.40;;;226.87;;
17133;SDS011;8682;52.120;5.252;2023-01-29T02:29:05;318.83;;;222.70;;
17133;SDS011;8682;52.120;5.252;2023-01-29T02:31:49;213.87;;;168.37;;
17133;SDS011;8682;52.120;5.252;2023-01-29T02:34:19;320.70;;;202.80;;
17133;SDS011;8682;52.120;5.252;2023-01-29T02:36:49;310.17;;;207.63;;
17133;SDS011;8682;52.120;5.252;2023-01-29T02:39:19;308.17;;;219.43;;
17133;SDS011;8682;52.120;5.252;2023-01-29T02:41:51;261.77;;;188.97;;
17133;SDS011;8682;52.120;5.252;2023-01-29T02:44:22;226.60;;;164.03;;
17133;SDS011;8682;52.120;5.252;2023-01-29T02:46:51;288.57;;;186.17;;
17133;SDS011;8682;52.120;5.252;2023-01-29T02:49:23;300.67;;;191.57;;
17133;SDS011;8682;52.120;5.252;2023-01-29T02:51:55;233.83;;;147.37;;
17133;SDS011;8682;52.120;5.252;2023-01-29T02:54:26;237.63;;;173.27;;
17133;SDS011;8682;52.120;5.252;2023-01-29T02:56:56;291.57;;;169.43;;
17133;SDS011;8682;52.120;5.252;2023-01-29T02:59:27;278.73;;;175.77;;
17133;SDS011;8682;52.120;5.252;2023-01-29T03:01:58;311.87;;;180.87;;
17133;SDS011;8682;52.120;5.252;2023-01-29T03:04:28;248.43;;;176.47;;
17133;SDS011;8682;52.120;5.252;2023-01-29T03:06:57;322.50;;;214.77;;
17133;SDS011;8682;52.120;5.252;2023-01-29T03:09:27;353.67;;;225.77;;
17133;SDS011;8682;52.120;5.252;2023-01-29T03:11:56;357.93;;;225.83;;
17133;SDS011;8682;52.120;5.252;2023-01-29T03:14:28;238.17;;;163.20;;
17133;SDS011;8682;52.120;5.252;2023-01-29T03:17:17;149.90;;;120.53;;
17133;SDS011;8682;52.120;5.252;2023-01-29T03:19:46;297.13;;;194.73;;
17133;SDS011;8682;52.120;5.252;2023-01-29T03:22:13;354.57;;;231.63;;
17133;SDS011;8682;52.120;5.252;2023-01-29T03:24:43;362.47;;;228.60;;
17133;SDS011;8682;52.120;5.252;2023-01-29T03:27:30;124.17;;;107.57;;
17133;SDS011;8682;52.120;5.252;2023-01-29T03:30:18;120.43;;;93.83;;
17133;SDS011;8682;52.120;5.252;2023-01-29T03:33:04;65.37;;;58.37;;
17133;SDS011;8682;52.120;5.252;2023-01-29T03:35:33;243.40;;;171.57;;
17133;SDS011;8682;52.120;5.252;2023-01-29T03:38:02;344.37;;;195.83;;
17133;SDS011;8682;52.120;5.252;2023-01-29T03:40:32;253.73;;;180.73;;
17133;SDS011;8682;52.120;5.252;2023-01-29T03:43:04;221.33;;;156.73;;
17133;SDS011;8682;52.120;5.252;2023-01-29T03:45:37;203.93;;;135.03;;
17133;SDS011;8682;52.120;5.252;2023-01-29T03:48:07;177.43;;;141.13;;
17133;SDS011;8682;52.120;5.252;2023-01-29T03:50:37;204.90;;;122.40;;
17133;SDS011;8682;52.120;5.252;2023-01-29T03:53:07;298.93;;;187.70;;
17133;SDS011;8682;52.120;5.252;2023-01-29T03:55:37;224.20;;;163.33;;
17133;SDS011;8682;52.120;5.252;2023-01-29T03:58:08;168.73;;;125.93;;
17133;SDS011;8682;52.120;5.252;2023-01-29T04:00:40;161.97;;;122.00;;
17133;SDS011;8682;52.120;5.252;2023-01-29T04:03:11;196.93;;;120.63;;
17133;SDS011;8682;52.120;5.252;2023-01-29T04:05:42;260.63;;;182.27;;
17133;SDS011;8682;52.120;5.252;2023-01-29T04:08:11;215.97;;;156.60;;
17133;SDS011;8682;52.120;5.252;2023-01-29T04:10:41;393.67;;;223.13;;
17133;SDS011;8682;52.120;5.252;2023-01-29T04:13:10;240.87;;;179.43;;
17133;SDS011;8682;52.120;5.252;2023-01-29T04:15:41;277.57;;;174.33;;
17133;SDS011;8682;52.120;5.252;2023-01-29T04:18:09;195.70;;;156.77;;
17133;SDS011;8682;52.120;5.252;2023-01-29T04:20:37;264.40;;;188.67;;
17133;SDS011;8682;52.120;5.252;2023-01-29T04:23:04;303.53;;;180.37;;
17133;SDS011;8682;52.120;5.252;2023-01-29T04:25:34;372.00;;;229.60;;
17133;SDS011;8682;52.120;5.252;2023-01-29T04:28:05;291.07;;;190.97;;
17133;SDS011;8682;52.120;5.252;2023-01-29T04:30:37;354.93;;;221.80;;
17133;SDS011;8682;52.120;5.252;2023-01-29T04:33:11;292.23;;;201.70;;
17133;SDS011;8682;52.120;5.252;2023-01-29T04:35:46;191.67;;;133.40;;
17133;SDS011;8682;52.120;5.252;2023-01-29T04:38:20;215.20;;;158.00;;
17133;SDS011;8682;52.120;5.252;2023-01-29T04:40:52;243.10;;;163.60;;
17133;SDS011;8682;52.120;5.252;2023-01-29T04:43:25;261.70;;;160.97;;
17133;SDS011;8682;52.120;5.252;2023-01-29T04:45:58;276.13;;;191.40;;
17133;SDS011;8682;52.120;5.252;2023-01-29T04:48:31;186.23;;;149.10;;
17133;SDS011;8682;52.120;5.252;2023-01-29T04:51:02;246.47;;;164.00;;
17133;SDS011;8682;52.120;5.252;2023-01-29T04:53:34;210.67;;;154.17;;
17133;SDS011;8682;52.120;5.252;2023-01-29T04:56:05;260.97;;;180.93;;
17133;SDS011;8682;52.120;5.252;2023-01-29T04:58:34;190.93;;;135.83;;
17133;SDS011;8682;52.120;5.252;2023-01-29T05:01:04;251.97;;;169.53;;
17133;SDS011;8682;52.120;5.252;2023-01-29T05:03:33;432.07;;;231.57;;
17133;SDS011;8682;52.120;5.252;2023-01-29T05:06:02;222.57;;;165.70;;
17133;SDS011;8682;52.120;5.252;2023-01-29T05:08:30;229.13;;;160.27;;
17133;SDS011;8682;52.120;5.252;2023-01-29T05:10:59;237.10;;;168.40;;
17133;SDS011;8682;52.120;5.252;2023-01-29T05:13:27;218.93;;;154.83;;
17133;SDS011;8682;52.120;5.252;2023-01-29T05:15:56;275.63;;;190.37;;
17133;SDS011;8682;52.120;5.252;2023-01-29T05:18:26;165.70;;;135.07;;
17133;SDS011;8682;52.120;5.252;2023-01-29T05:20:55;214.50;;;149.37;;
17133;SDS011;8682;52.120;5.252;2023-01-29T05:23:23;158.87;;;133.07;;
17133;SDS011;8682;52.120;5.252;2023-01-29T05:25:50;188.80;;;143.10;;
17133;SDS011;8682;52.120;5.252;2023-01-29T05:28:17;183.63;;;145.13;;
17133;SDS011;8682;52.120;5.252;2023-01-29T05:30:44;153.00;;;108.20;;
17133;SDS011;8682;52.120;5.252;2023-01-29T05:33:13;128.10;;;104.87;;
17133;SDS011;8682;52.120;5.252;2023-01-29T05:35:40;110.93;;;91.70;;
17133;SDS011;8682;52.120;5.252;2023-01-29T05:38:09;110.03;;;86.97;;
17133;SDS011;8682;52.120;5.252;2023-01-29T05:40:36;123.33;;;93.30;;
17133;SDS011;8682;52.120;5.252;2023-01-29T05:43:04;85.27;;;67.43;;
17133;SDS011;8682;52.120;5.252;2023-01-29T05:45:32;86.97;;;74.43;;
17133;SDS011;8682;52.120;5.252;2023-01-29T05:47:59;68.00;;;57.13;;
17133;SDS011;8682;52.120;5.252;2023-01-29T05:50:27;75.90;;;60.53;;
17133;SDS011;8682;52.120;5.252;2023-01-29T05:52:57;70.27;;;47.70;;
17133;SDS011;8682;52.120;5.252;2023-01-29T05:55:26;43.03;;;29.70;;
17133;SDS011;8682;52.120;5.252;2023-01-29T05:57:54;70.20;;;49.37;;
17133;SDS011;8682;52.120;5.252;2023-01-29T06:00:21;1999.90;;;749.42;;
17133;SDS011;8682;52.120;5.252;2023-01-29T06:02:48;1999.90;;;999.90;;
17133;SDS011;8682;52.120;5.252;2023-01-29T06:05:15;812.20;;;379.07;;
17133;SDS011;8682;52.120;5.252;2023-01-29T06:07:42;219.27;;;152.33;;
17133;SDS011;8682;52.120;5.252;2023-01-29T06:10:11;59.20;;;47.37;;
17133;SDS011;8682;52.120;5.252;2023-01-29T06:12:40;41.10;;;35.23;;
17133;SDS011;8682;52.120;5.252;2023-01-29T06:15:07;38.10;;;29.17;;
17133;SDS011;8682;52.120;5.252;2023-01-29T06:17:34;33.10;;;27.13;;
17133;SDS011;8682;52.120;5.252;2023-01-29T06:20:02;29.20;;;23.40;;
17133;SDS011;8682;52.120;5.252;2023-01-29T06:22:29;41.27;;;31.83;;
17133;SDS011;8682;52.120;5.252;2023-01-29T06:24:56;27.90;;;24.93;;
17133;SDS011;8682;52.120;5.252;2023-01-29T06:27:23;35.50;;;26.73;;
17133;SDS011;8682;52.120;5.252;2023-01-29T06:29:52;31.33;;;23.47;;
17133;SDS011;8682;52.120;5.252;2023-01-29T06:32:19;30.77;;;24.03;;
17133;SDS011;8682;52.120;5.252;2023-01-29T06:34:46;34.03;;;23.43;;
17133;SDS011;8682;52.120;5.252;2023-01-29T06:37:13;39.30;;;26.77;;
17133;SDS011;8682;52.120;5.252;2023-01-29T06:39:40;37.90;;;32.40;;
17133;SDS011;8682;52.120;5.252;2023-01-29T06:42:08;29.23;;;25.43;;
17133;SDS011;8682;52.120;5.252;2023-01-29T06:44:35;28.33;;;23.00;;
17133;SDS011;8682;52.120;5.252;2023-01-29T06:47:04;32.23;;;23.97;;
17133;SDS011;8682;52.120;5.252;2023-01-29T06:49:31;27.27;;;20.60;;
17133;SDS011;8682;52.120;5.252;2023-01-29T06:51:58;26.03;;;21.63;;
17133;SDS011;8682;52.120;5.252;2023-01-29T06:54:25;27.50;;;23.43;;
17133;SDS011;8682;52.120;5.252;2023-01-29T06:56:53;24.40;;;21.77;;
17133;SDS011;8682;52.120;5.252;2023-01-29T06:59:20;24.27;;;21.13;;
17133;SDS011;8682;52.120;5.252;2023-01-29T07:01:47;24.43;;;21.23;;
17133;SDS011;8682;52.120;5.252;2023-01-29T07:04:16;26.03;;;20.07;;
17133;SDS011;8682;52.120;5.252;2023-01-29T07:06:43;24.93;;;22.20;;
17133;SDS011;8682;52.120;5.252;2023-01-29T07:09:10;23.73;;;20.07;;
17133;SDS011;8682;52.120;5.252;2023-01-29T07:11:37;22.80;;;20.37;;
17133;SDS011;8682;52.120;5.252;2023-01-29T07:14:05;27.27;;;22.57;;
17133;SDS011;8682;52.120;5.252;2023-01-29T07:16:32;28.47;;;22.73;;
17133;SDS011;8682;52.120;5.252;2023-01-29T07:18:59;27.50;;;23.60;;
17133;SDS011;8682;52.120;5.252;2023-01-29T07:21:28;40.03;;;32.63;;
17133;SDS011;8682;52.120;5.252;2023-01-29T07:23:55;28.50;;;22.70;;
17133;SDS011;8682;52.120;5.252;2023-01-29T07:26:22;41.43;;;33.83;;
17133;SDS011;8682;52.120;5.252;2023-01-29T07:28:49;67.57;;;55.40;;
17133;SDS011;8682;52.120;5.252;2023-01-29T07:31:17;51.67;;;45.50;;
17133;SDS011;8682;52.120;5.252;2023-01-29T07:33:44;50.00;;;44.63;;
17133;SDS011;8682;52.120;5.252;2023-01-29T07:36:11;42.80;;;34.40;;
17133;SDS011;8682;52.120;5.252;2023-01-29T07:38:40;41.27;;;36.33;;
17133;SDS011;8682;52.120;5.252;2023-01-29T07:41:07;28.27;;;25.40;;
17133;SDS011;8682;52.120;5.252;2023-01-29T07:43:35;30.17;;;26.80;;
17133;SDS011;8682;52.120;5.252;2023-01-29T07:46:02;30.43;;;27.10;;
17133;SDS011;8682;52.120;5.252;2023-01-29T07:48:29;39.87;;;33.47;;
17133;SDS011;8682;52.120;5.252;2023-01-29T07:50:56;34.13;;;30.37;;
17133;SDS011;8682;52.120;5.252;2023-01-29T07:53:24;32.97;;;25.90;;
17133;SDS011;8682;52.120;5.252;2023-01-29T07:55:53;26.53;;;23.43;;
17133;SDS011;8682;52.120;5.252;2023-01-29T07:58:20;24.03;;;21.20;;
17133;SDS011;8682;52.120;5.252;2023-01-29T08:00:47;22.10;;;19.07;;
17133;SDS011;8682;52.120;5.252;2023-01-29T08:03:15;21.30;;;18.97;;
17133;SDS011;8682;52.120;5.252;2023-01-29T08:05:44;26.80;;;23.97;;
17133;SDS011;8682;52.120;5.252;2023-01-29T08:08:11;24.23;;;18.83;;
17133;SDS011;8682;52.120;5.252;2023-01-29T08:10:39;26.50;;;20.63;;
17133;SDS011;8682;52.120;5.252;2023-01-29T08:13:08;26.43;;;20.60;;
17133;SDS011;8682;52.120;5.252;2023-01-29T08:15:35;24.70;;;20.13;;
17133;SDS011;8682;52.120;5.252;2023-01-29T08:18:02;28.67;;;23.10;;
17133;SDS011;8682;52.120;5.252;2023-01-29T08:20:29;23.47;;;21.13;;
17133;SDS011;8682;52.120;5.252;2023-01-29T08:22:57;32.17;;;23.23;;
17133;SDS011;8682;52.120;5.252;2023-01-29T08:25:25;26.33;;;20.20;;
17133;SDS011;8682;52.120;5.252;2023-01-29T08:27:52;22.80;;;18.27;;
17133;SDS011;8682;52.120;5.252;2023-01-29T08:30:21;20.87;;;18.43;;
17133;SDS011;8682;52.120;5.252;2023-01-29T08:32:48;20.77;;;18.57;;
17133;SDS011;8682;52.120;5.252;2023-01-29T08:35:15;21.70;;;19.27;;
17133;SDS011;8682;52.120;5.252;2023-01-29T08:37:42;24.50;;;17.77;;
17133;SDS011;8682;52.120;5.252;2023-01-29T08:40:09;24.40;;;19.43;;
17133;SDS011;8682;52.120;5.252;2023-01-29T08:42:37;24.47;;;18.37;;
17133;SDS011;8682;52.120;5.252;2023-01-29T08:45:06;21.07;;;16.47;;
17133;SDS011;8682;52.120;5.252;2023-01-29T08:47:35;23.53;;;18.57;;
17133;SDS011;8682;52.120;5.252;2023-01-29T08:50:02;20.90;;;18.63;;
17133;SDS011;8682;52.120;5.252;2023-01-29T08:52:29;21.93;;;18.17;;
17133;SDS011;8682;52.120;5.252;2023-01-29T08:54:56;20.30;;;18.03;;
17133;SDS011;8682;52.120;5.252;2023-01-29T08:57:24;21.20;;;18.37;;
17133;SDS011;8682;52.120;5.252;2023-01-29T08:59:51;22.63;;;18.90;;
17133;SDS011;8682;52.120;5.252;2023-01-29T09:02:18;22.60;;;18.30;;
17133;SDS011;8682;52.120;5.252;2023-01-29T09:04:46;22.13;;;17.33;;
17133;SDS011;8682;52.120;5.252;2023-01-29T09:07:13;25.80;;;17.73;;
17133;SDS011;8682;52.120;5.252;2023-01-29T09:09:41;21.77;;;18.47;;
17133;SDS011;8682;52.120;5.252;2023-01-29T09:12:08;29.80;;;20.20;;
17133;SDS011;8682;52.120;5.252;2023-01-29T09:14:35;21.43;;;18.53;;
17133;SDS011;8682;52.120;5.252;2023-01-29T09:17:02;24.53;;;19.43;;
17133;SDS011;8682;52.120;5.252;2023-01-29T09:19:29;23.00;;;17.93;;
17133;SDS011;8682;52.120;5.252;2023-01-29T09:21:58;23.07;;;18.63;;
17133;SDS011;8682;52.120;5.252;2023-01-29T09:24:25;21.40;;;18.67;;
17133;SDS011;8682;52.120;5.252;2023-01-29T09:26:52;24.23;;;18.47;;
17133;SDS011;8682;52.120;5.252;2023-01-29T09:29:19;22.63;;;17.90;;
17133;SDS011;8682;52.120;5.252;2023-01-29T09:31:46;23.63;;;19.77;;
17133;SDS011;8682;52.120;5.252;2023-01-29T09:34:13;22.07;;;17.63;;
17133;SDS011;8682;52.120;5.252;2023-01-29T09:36:41;21.50;;;17.63;;
17133;SDS011;8682;52.120;5.252;2023-01-29T09:39:09;21.07;;;18.57;;
17133;SDS011;8682;52.120;5.252;2023-01-29T09:41:40;24.00;;;18.60;;
17133;SDS011;8682;52.120;5.252;2023-01-29T09:44:11;24.27;;;18.70;;
17133;SDS011;8682;52.120;5.252;2023-01-29T09:46:40;22.27;;;18.30;;
17133;SDS011;8682;52.120;5.252;2023-01-29T09:49:10;23.00;;;19.33;;
17133;SDS011;8682;52.120;5.252;2023-01-29T09:51:39;26.83;;;20.30;;
17133;SDS011;8682;52.120;5.252;2023-01-29T09:54:15;23.93;;;18.87;;
17133;SDS011;8682;52.120;5.252;2023-01-29T09:56:44;24.10;;;20.20;;
17133;SDS011;8682;52.120;5.252;2023-01-29T09:59:12;21.20;;;18.50;;
17133;SDS011;8682;52.120;5.252;2023-01-29T10:01:41;22.67;;;19.17;;
17133;SDS011;8682;52.120;5.252;2023-01-29T10:04:31;26.20;;;19.83;;
17133;SDS011;8682;52.120;5.252;2023-01-29T10:07:06;22.47;;;19.27;;
17133;SDS011;8682;52.120;5.252;2023-01-29T10:09:54;22.40;;;19.23;;
17133;SDS011;8682;52.120;5.252;2023-01-29T10:12:28;22.17;;;19.67;;
17133;SDS011;8682;52.120;5.252;2023-01-29T10:14:59;24.03;;;18.63;;
17133;SDS011;8682;52.120;5.252;2023-01-29T10:17:32;22.57;;;19.60;;
17133;SDS011;8682;52.120;5.252;2023-01-29T10:20:10;21.67;;;19.40;;
17133;SDS011;8682;52.120;5.252;2023-01-29T10:22:44;25.37;;;19.47;;
17133;SDS011;8682;52.120;5.252;2023-01-29T10:25:16;23.13;;;20.40;;
17133;SDS011;8682;52.120;5.252;2023-01-29T10:27:46;22.57;;;20.17;;
17133;SDS011;8682;52.120;5.252;2023-01-29T10:30:20;23.63;;;20.17;;
17133;SDS011;8682;52.120;5.252;2023-01-29T10:32:47;23.83;;;20.13;;
17133;SDS011;8682;52.120;5.252;2023-01-29T10:35:21;28.50;;;21.47;;
17133;SDS011;8682;52.120;5.252;2023-01-29T10:37:50;27.50;;;20.20;;
17133;SDS011;8682;52.120;5.252;2023-01-29T10:40:20;27.00;;;21.17;;
17133;SDS011;8682;52.120;5.252;2023-01-29T10:42:49;26.33;;;21.33;;
17133;SDS011;8682;52.120;5.252;2023-01-29T10:45:21;25.00;;;20.77;;
17133;SDS011;8682;52.120;5.252;2023-01-29T10:47:57;28.77;;;20.80;;
17133;SDS011;8682;52.120;5.252;2023-01-29T10:53:16;23.60;;;21.10;;
17133;SDS011;8682;52.120;5.252;2023-01-29T10:55:49;1175.45;;;817.83;;
17133;SDS011;8682;52.120;5.252;2023-01-29T10:58:20;829.03;;;413.07;;
17133;SDS011;8682;52.120;5.252;2023-01-29T11:00:50;27.53;;;22.70;;
17133;SDS011;8682;52.120;5.252;2023-01-29T11:03:20;24.73;;;21.07;;
17133;SDS011;8682;52.120;5.252;2023-01-29T11:05:48;25.57;;;21.43;;
17133;SDS011;8682;52.120;5.252;2023-01-29T11:08:18;24.97;;;20.77;;
17133;SDS011;8682;52.120;5.252;2023-01-29T11:10:53;25.13;;;20.83;;
17133;SDS011;8682;52.120;5.252;2023-01-29T11:13:21;24.23;;;20.70;;
17133;SDS011;8682;52.120;5.252;2023-01-29T11:15:50;24.80;;;21.07;;
17133;SDS011;8682;52.120;5.252;2023-01-29T11:18:18;24.97;;;21.97;;
17133;SDS011;8682;52.120;5.252;2023-01-29T11:20:45;28.60;;;21.30;;
17133;SDS011;8682;52.120;5.252;2023-01-29T11:23:25;28.27;;;21.80;;
17133;SDS011;8682;52.120;5.252;2023-01-29T11:25:54;26.93;;;22.30;;
17133;SDS011;8682;52.120;5.252;2023-01-29T11:28:34;28.93;;;23.33;;
17133;SDS011;8682;52.120;5.252;2023-01-29T11:31:02;30.67;;;23.77;;
17133;SDS011;8682;52.120;5.252;2023-01-29T11:33:29;28.60;;;22.20;;
17133;SDS011;8682;52.120;5.252;2023-01-29T11:35:56;28.13;;;22.30;;
17133;SDS011;8682;52.120;5.252;2023-01-29T11:38:24;29.73;;;23.57;;
17133;SDS011;8682;52.120;5.252;2023-01-29T11:40:51;32.30;;;23.80;;
17133;SDS011;8682;52.120;5.252;2023-01-29T11:43:27;32.20;;;24.73;;
17133;SDS011;8682;52.120;5.252;2023-01-29T11:45:56;32.37;;;24.87;;
17133;SDS011;8682;52.120;5.252;2023-01-29T11:48:26;31.63;;;23.47;;
17133;SDS011;8682;52.120;5.252;2023-01-29T11:50:55;30.93;;;24.17;;
17133;SDS011;8682;52.120;5.252;2023-01-29T11:53:29;31.90;;;24.90;;
17133;SDS011;8682;52.120;5.252;2023-01-29T11:55:58;34.40;;;24.67;;
17133;SDS011;8682;52.120;5.252;2023-01-29T11:58:27;33.83;;;26.00;;
17133;SDS011;8682;52.120;5.252;2023-01-29T12:00:56;34.53;;;24.87;;
17133;SDS011;8682;52.120;5.252;2023-01-29T12:03:27;32.53;;;23.57;;
17133;SDS011;8682;52.120;5.252;2023-01-29T12:05:57;34.67;;;25.17;;
17133;SDS011;8682;52.120;5.252;2023-01-29T12:08:25;36.73;;;25.90;;
17133;SDS011;8682;52.120;5.252;2023-01-29T12:11:05;30.77;;;25.00;;
17133;SDS011;8682;52.120;5.252;2023-01-29T12:13:34;34.10;;;25.47;;
17133;SDS011;8682;52.120;5.252;2023-01-29T12:16:14;38.57;;;27.63;;
17133;SDS011;8682;52.120;5.252;2023-01-29T12:18:43;34.03;;;24.20;;
17133;SDS011;8682;52.120;5.252;2023-01-29T12:21:13;32.87;;;25.87;;
17133;SDS011;8682;52.120;5.252;2023-01-29T12:23:44;36.13;;;24.03;;
17133;SDS011;8682;52.120;5.252;2023-01-29T12:26:14;38.90;;;27.30;;
17133;SDS011;8682;52.120;5.252;2023-01-29T12:28:45;33.23;;;25.53;;
17133;SDS011;8682;52.120;5.252;2023-01-29T12:31:19;36.50;;;26.53;;
17133;SDS011;8682;52.120;5.252;2023-01-29T12:33:49;31.47;;;24.23;;
17133;SDS011;8682;52.120;5.252;2023-01-29T12:36:18;36.13;;;25.27;;
17133;SDS011;8682;52.120;5.252;2023-01-29T12:38:47;30.43;;;23.67;;
17133;SDS011;8682;52.120;5.252;2023-01-29T12:41:22;31.20;;;24.40;;
17133;SDS011;8682;52.120;5.252;2023-01-29T12:43:52;34.13;;;25.10;;
17133;SDS011;8682;52.120;5.252;2023-01-29T12:46:21;35.53;;;26.27;;
17133;SDS011;8682;52.120;5.252;2023-01-29T12:48:48;32.57;;;25.13;;
17133;SDS011;8682;52.120;5.252;2023-01-29T12:51:17;35.80;;;25.57;;
17133;SDS011;8682;52.120;5.252;2023-01-29T12:53:46;36.20;;;27.40;;
17133;SDS011;8682;52.120;5.252;2023-01-29T12:56:18;38.27;;;27.23;;
17133;SDS011;8682;52.120;5.252;2023-01-29T12:58:50;42.13;;;33.03;;
17133;SDS011;8682;52.120;5.252;2023-01-29T13:01:22;41.60;;;34.23;;
17133;SDS011;8682;52.120;5.252;2023-01-29T13:03:53;50.40;;;39.80;;
17133;SDS011;8682;52.120;5.252;2023-01-29T13:06:22;72.93;;;64.13;;
17133;SDS011;8682;52.120;5.252;2023-01-29T13:08:52;148.00;;;93.23;;
17133;SDS011;8682;52.120;5.252;2023-01-29T13:11:21;89.13;;;53.87;;
17133;SDS011;8682;52.120;5.252;2023-01-29T13:13:51;116.37;;;92.10;;
17133;SDS011;8682;52.120;5.252;2023-01-29T13:16:22;138.20;;;105.83;;
17133;SDS011;8682;52.120;5.252;2023-01-29T13:18:52;154.33;;;97.20;;
17133;SDS011;8682;52.120;5.252;2023-01-29T13:21:22;62.40;;;52.93;;
17133;SDS011;8682;52.120;5.252;2023-01-29T13:23:51;34.07;;;28.93;;
17133;SDS011;8682;52.120;5.252;2023-01-29T13:26:19;46.47;;;39.27;;
17133;SDS011;8682;52.120;5.252;2023-01-29T13:28:47;33.67;;;27.43;;
17133;SDS011;8682;52.120;5.252;2023-01-29T13:31:25;43.60;;;35.07;;
17133;SDS011;8682;52.120;5.252;2023-01-29T13:33:54;32.90;;;24.57;;
17133;SDS011;8682;52.120;5.252;2023-01-29T13:36:23;33.03;;;23.83;;
17133;SDS011;8682;52.120;5.252;2023-01-29T13:38:53;32.60;;;25.70;;
17133;SDS011;8682;52.120;5.252;2023-01-29T13:41:29;28.40;;;25.17;;
17133;SDS011;8682;52.120;5.252;2023-01-29T13:43:57;26.50;;;23.03;;
17133;SDS011;8682;52.120;5.252;2023-01-29T13:46:25;31.23;;;23.60;;
17133;SDS011;8682;52.120;5.252;2023-01-29T13:48:53;34.90;;;28.13;;
17133;SDS011;8682;52.120;5.252;2023-01-29T13:51:32;30.17;;;24.27;;
17133;SDS011;8682;52.120;5.252;2023-01-29T13:54:01;30.47;;;23.87;;
17133;SDS011;8682;52.120;5.252;2023-01-29T13:56:41;35.73;;;28.63;;
17133;SDS011;8682;52.120;5.252;2023-01-29T13:59:20;46.80;;;36.60;;
17133;SDS011;8682;52.120;5.252;2023-01-29T14:02:01;35.90;;;30.80;;
17133;SDS011;8682;52.120;5.252;2023-01-29T14:04:29;29.33;;;21.97;;
17133;SDS011;8682;52.120;5.252;2023-01-29T14:06:57;28.83;;;24.60;;
17133;SDS011;8682;52.120;5.252;2023-01-29T14:12:29;37.33;;;23.50;;
17133;SDS011;8682;52.120;5.252;2023-01-29T14:15:01;31.77;;;25.87;;
17133;SDS011;8682;52.120;5.252;2023-01-29T14:17:30;33.77;;;27.80;;
17133;SDS011;8682;52.120;5.252;2023-01-29T14:19:59;63.77;;;45.57;;
17133;SDS011;8682;52.120;5.252;2023-01-29T14:22:27;34.87;;;29.67;;
17133;SDS011;8682;52.120;5.252;2023-01-29T14:24:56;41.27;;;32.77;;
17133;SDS011;8682;52.120;5.252;2023-01-29T14:27:24;65.57;;;52.67;;
17133;SDS011;8682;52.120;5.252;2023-01-29T14:29:52;40.77;;;36.30;;
17133;SDS011;8682;52.120;5.252;2023-01-29T14:32:24;53.10;;;43.07;;
17133;SDS011;8682;52.120;5.252;2023-01-29T14:34:55;238.83;;;125.07;;
17133;SDS011;8682;52.120;5.252;2023-01-29T14:37:27;32.20;;;27.30;;
17133;SDS011;8682;52.120;5.252;2023-01-29T14:39:57;40.50;;;33.40;;
17133;SDS011;8682;52.120;5.252;2023-01-29T14:42:26;32.93;;;29.60;;
17133;SDS011;8682;52.120;5.252;2023-01-29T14:44:57;55.07;;;39.00;;